Airfield :
LOGIN :

Register | Disclaimer

   EN    FR    IT 

 










Legend :    VFR   Marginal VFR   IFR   Intensive IFR   Very Intensive IFR
Visi :
Ceiling :
>= 8 km
>= 3000ft
5 to 8 km
1000 to 3000 ft
1500m to 5 km
500 to 1000 ft
800 to 1500m
200 to 500 ft
< 800m
< 200 ft
Symbols :   Thunderstorms  Fog  Heavy snow  Heavy precipitations  Wind > 20 kt
SIGMETs :     Misc.  Thunderstorms  Icing  Turbulence  Mountain Waves  Volcanic Ashes






- Airport Elevation : 1686 ft
- IATA code : MUW


DAOV - Ghriss

CURRENT METAR :
  • 121900Z 22008KT 9999 FEW023 SCT233 09/03 Q1022

EXPIRED METARs :
  • 121800Z 28010KT 9999 FEW023 SCT233 10/02 Q1022
  • 121700Z 26010KT 9999 FEW023 SCT233 11/02 Q1022
  • 121600Z 25014KT 9999 FEW023 SCT233 13/03 Q1021

TAF TAF DAOV
Valid from the 12 at 15:00 until the 13 at 00:00 UTC


121400Z 1215/1224 28018G29KT 9999 FEW020 SCT023



MET'MAP, your aeronautical weather chart ! - Copyright ORBIFLY December 2007 - Disclaimer

ORBIFLY MET'MAP TEAM :

Programming & Development : Alexandra Zaïnal
Concept & original design : Baudouin d'Aumeries
Assistance for programming : Marc-Olivier Méhu
Technical & hardware support : Manuel Goepfert

Contact : metmap@orbifly.com




SOURCES & CREDITS :

   NOAA